Time;durP1;ratioP1;P1;durP2;ratioP2;P2;SDS_P1;SDS_P2;PMS_P1;PMS_P2;Temp;Humidity;BMP_temperature;BMP_pressure;BME280_temperature;BME280_humidity;BME280_pressure;Samples;Min_cycle;Max_cycle;Signal;HPM_P1;HPM_P2
2024/02/29 00:00:38;;;;;;;9.53;6.97;;;;;;;;;;5110151;27;20469;-63
2024/02/29 00:03:08;;;;;;;11.47;9.77;;;;;;;;;;5109623;27;20499;-63
2024/02/29 00:05:35;;;;;;;10.07;8.90;;;;;;;;;;5120133;27;20469;-63
2024/02/29 00:08:03;;;;;;;5.47;5.07;;;;;;;;;;5125330;27;20485;-63
2024/02/29 00:10:29;;;;;;;5.77;5.20;;;;;;;;;;5119965;27;20437;-63
2024/02/29 00:12:56;;;;;;;7.00;5.73;;;;;;;;;;5117521;27;20446;-63
2024/02/29 00:15:23;;;;;;;17.57;9.70;;;;;;;;;;5133869;27;20492;-63
2024/02/29 00:17:49;;;;;;;16.90;13.60;;;;;;;;;;5126337;27;20445;-63
2024/02/29 00:20:16;;;;;;;4.10;3.70;;;;;;;;;;5129414;27;20913;-63
2024/02/29 00:22:42;;;;;;;2.30;2.20;;;;;;;;;;5130849;27;20533;-63
2024/02/29 00:25:10;;;;;;;18.40;10.50;;;;;;;;;;5128785;27;20560;-63
2024/02/29 00:27:37;;;;;;;13.93;7.10;;;;;;;;;;5125054;27;20484;-63
2024/02/29 00:30:04;;;;;;;3.97;3.80;;;;;;;;;;5113239;27;20443;-62
2024/02/29 00:32:30;;;;;;;27.50;5.07;;;;;;;;;;5111657;27;20757;-63
2024/02/29 00:34:57;;;;;;;6.87;6.23;;;;;;;;;;5111686;28;21003;-63
2024/02/29 00:37:23;;;;;;;6.73;4.87;;;;;;;;;;5118528;27;21002;-62
2024/02/29 00:39:49;;;;;;;8.70;7.90;;;;;;;;;;5112453;28;20536;-62
2024/02/29 00:42:17;;;;;;;4.83;4.53;;;;;;;;;;5120961;27;20514;-63
2024/02/29 00:44:43;;;;;;;2.57;2.47;;;;;;;;;;5128537;27;20510;-63
2024/02/29 00:47:11;;;;;;;4.73;4.33;;;;;;;;;;5113505;28;20481;-62
2024/02/29 00:49:39;;;;;;;3.60;3.40;;;;;;;;;;5125942;27;21066;-62
2024/02/29 00:52:05;;;;;;;2.60;2.50;;;;;;;;;;5126926;27;20457;-62
2024/02/29 00:54:32;;;;;;;5.57;5.37;;;;;;;;;;5119774;27;20510;-62
2024/02/29 00:56:58;;;;;;;10.27;9.57;;;;;;;;;;5129509;27;20946;-62
2024/02/29 00:59:26;;;;;;;6.00;5.80;;;;;;;;;;5126135;27;20442;-62
2024/02/29 01:01:52;;;;;;;11.00;10.30;;;;;;;;;;5112025;28;20577;-62
2024/02/29 01:04:19;;;;;;;5.80;5.60;;;;;;;;;;5121963;27;20441;-62
2024/02/29 01:06:45;;;;;;;6.97;6.57;;;;;;;;;;5113395;28;20987;-62
2024/02/29 01:09:12;;;;;;;10.70;9.83;;;;;;;;;;5107002;28;20442;-63
2024/02/29 01:11:38;;;;;;;6.37;6.17;;;;;;;;;;5124503;27;20426;-62
2024/02/29 01:14:05;;;;;;;14.47;13.70;;;;;;;;;;5115198;28;20505;-63
2024/02/29 01:16:33;;;;;;;4.30;4.10;;;;;;;;;;5109865;27;20458;-63
2024/02/29 01:19:00;;;;;;;2.87;2.77;;;;;;;;;;5114596;28;20460;-62
2024/02/29 01:21:27;;;;;;;2.60;2.50;;;;;;;;;;5115856;27;20486;-62
2024/02/29 01:23:53;;;;;;;2.50;2.40;;;;;;;;;;5117313;27;20475;-63
2024/02/29 01:26:19;;;;;;;2.77;2.67;;;;;;;;;;5120514;27;20481;-63
2024/02/29 01:28:46;;;;;;;2.90;2.80;;;;;;;;;;5113303;28;20536;-62
2024/02/29 01:31:13;;;;;;;5.10;4.03;;;;;;;;;;5118486;28;20938;-62
2024/02/29 01:33:41;;;;;;;2.27;2.17;;;;;;;;;;5120544;27;20458;-63
2024/02/29 01:36:07;;;;;;;3.90;3.70;;;;;;;;;;5114983;28;20913;-62
2024/02/29 01:38:33;;;;;;;5.33;4.50;;;;;;;;;;5120104;27;20493;-62
2024/02/29 01:41:00;;;;;;;8.03;5.87;;;;;;;;;;5114334;27;20461;-62
2024/02/29 01:43:29;;;;;;;7.10;5.00;;;;;;;;;;5118890;28;20454;-62
2024/02/29 01:46:05;;;;;;;4.83;4.40;;;;;;;;;;5118065;27;20549;-62
2024/02/29 01:48:32;;;;;;;2.60;2.50;;;;;;;;;;5119263;27;20469;-62
2024/02/29 01:51:00;;;;;;;2.50;2.40;;;;;;;;;;5103794;28;20717;-63
2024/02/29 01:53:26;;;;;;;4.00;3.70;;;;;;;;;;5110312;28;21879;-62
2024/02/29 01:55:52;;;;;;;6.17;4.87;;;;;;;;;;5126231;27;20485;-63
2024/02/29 01:58:19;;;;;;;4.20;4.00;;;;;;;;;;5119355;27;20461;-63
2024/02/29 02:00:46;;;;;;;4.00;3.90;;;;;;;;;;5120528;27;20467;-63
2024/02/29 02:03:12;;;;;;;4.10;4.00;;;;;;;;;;5124123;27;20474;-63
2024/02/29 02:05:39;;;;;;;7.63;7.07;;;;;;;;;;5113146;28;20479;-63
2024/02/29 02:08:07;;;;;;;4.90;4.50;;;;;;;;;;5124195;27;20464;-64
2024/02/29 02:10:34;;;;;;;3.57;3.47;;;;;;;;;;5127741;28;20532;-63
2024/02/29 02:13:00;;;;;;;5.90;5.40;;;;;;;;;;5119129;28;20449;-63
2024/02/29 02:15:27;;;;;;;4.70;4.50;;;;;;;;;;5117344;28;20869;-63
2024/02/29 02:17:53;;;;;;;4.30;4.20;;;;;;;;;;5115288;28;20489;-63
2024/02/29 02:20:21;;;;;;;3.73;3.63;;;;;;;;;;5107078;28;20438;-63
2024/02/29 02:22:47;;;;;;;4.43;4.30;;;;;;;;;;5118540;28;20481;-63
2024/02/29 02:25:14;;;;;;;5.13;4.97;;;;;;;;;;5116422;27;20462;-63
2024/02/29 02:27:40;;;;;;;4.60;4.20;;;;;;;;;;5127850;27;20477;-63
2024/02/29 02:30:07;;;;;;;7.50;7.07;;;;;;;;;;5126560;27;20456;-63
2024/02/29 02:32:34;;;;;;;6.00;5.60;;;;;;;;;;5115717;28;20801;-63
2024/02/29 02:35:00;;;;;;;7.00;6.40;;;;;;;;;;5115006;27;20465;-63
2024/02/29 02:37:28;;;;;;;3.97;3.87;;;;;;;;;;5118358;27;20493;-63
2024/02/29 02:39:54;;;;;;;5.63;5.23;;;;;;;;;;5120340;27;20516;-63
2024/02/29 02:42:21;;;;;;;4.67;4.47;;;;;;;;;;5127675;27;20545;-63
2024/02/29 02:44:47;;;;;;;7.30;6.63;;;;;;;;;;5117416;28;20485;-63
2024/02/29 02:47:14;;;;;;;4.33;4.13;;;;;;;;;;5123566;27;20450;-63
2024/02/29 02:49:41;;;;;;;4.47;4.37;;;;;;;;;;5124502;27;20473;-63
2024/02/29 02:52:08;;;;;;;6.47;6.07;;;;;;;;;;5127764;27;20456;-63
2024/02/29 02:54:35;;;;;;;5.30;4.90;;;;;;;;;;5120318;27;20489;-63
2024/02/29 02:57:02;;;;;;;5.00;4.70;;;;;;;;;;5116610;28;20430;-63
2024/02/29 02:59:29;;;;;;;4.20;4.10;;;;;;;;;;5124038;27;20473;-63
2024/02/29 03:01:55;;;;;;;6.83;6.00;;;;;;;;;;5113112;28;20533;-63
2024/02/29 03:04:21;;;;;;;7.23;6.73;;;;;;;;;;5120236;28;20466;-63
2024/02/29 03:06:48;;;;;;;10.20;7.50;;;;;;;;;;5114603;28;20472;-63
2024/02/29 03:09:14;;;;;;;8.13;6.87;;;;;;;;;;5113911;27;20447;-63
2024/02/29 03:11:43;;;;;;;5.07;4.87;;;;;;;;;;5114536;27;20482;-63
2024/02/29 03:14:10;;;;;;;5.70;5.50;;;;;;;;;;5111381;27;20508;-63
2024/02/29 03:16:36;;;;;;;5.90;5.60;;;;;;;;;;5111897;28;20493;-63
2024/02/29 03:19:04;;;;;;;7.90;7.20;;;;;;;;;;5128368;27;21352;-63
2024/02/29 03:21:31;;;;;;;7.43;6.83;;;;;;;;;;5128415;27;20445;-63
2024/02/29 03:23:57;;;;;;;12.93;7.43;;;;;;;;;;5127104;27;20503;-63
2024/02/29 03:26:24;;;;;;;6.40;5.87;;;;;;;;;;5117830;27;20443;-63
2024/02/29 03:28:51;;;;;;;7.60;7.20;;;;;;;;;;5120708;28;20792;-63
2024/02/29 03:31:18;;;;;;;6.20;5.70;;;;;;;;;;5125918;27;20449;-63
2024/02/29 03:33:44;;;;;;;6.73;6.33;;;;;;;;;;5122707;27;20850;-63
2024/02/29 03:36:11;;;;;;;5.07;4.77;;;;;;;;;;5117359;27;20519;-63
2024/02/29 03:38:37;;;;;;;9.53;8.70;;;;;;;;;;5118647;28;20496;-63
2024/02/29 03:41:06;;;;;;;7.33;6.57;;;;;;;;;;5118665;28;20921;-63
2024/02/29 03:43:32;;;;;;;7.03;6.73;;;;;;;;;;5126984;27;20515;-63
2024/02/29 03:46:00;;;;;;;7.13;6.83;;;;;;;;;;5122655;27;21364;-63
2024/02/29 03:48:27;;;;;;;5.93;5.60;;;;;;;;;;5125636;27;20438;-63
2024/02/29 03:50:53;;;;;;;8.83;5.33;;;;;;;;;;5125552;27;20494;-63
2024/02/29 03:53:20;;;;;;;6.57;5.93;;;;;;;;;;5122801;27;20437;-63
2024/02/29 03:55:47;;;;;;;8.70;8.10;;;;;;;;;;5126910;27;20489;-63
2024/02/29 03:58:14;;;;;;;5.63;5.33;;;;;;;;;;5127034;27;20555;-63
2024/02/29 04:00:40;;;;;;;5.03;4.83;;;;;;;;;;5123398;27;20457;-63
2024/02/29 04:03:08;;;;;;;7.50;6.90;;;;;;;;;;5121901;27;20497;-63
2024/02/29 04:05:34;;;;;;;6.60;6.23;;;;;;;;;;5111752;28;20474;-63
2024/02/29 04:08:03;;;;;;;5.83;5.50;;;;;;;;;;5129422;27;20537;-63
2024/02/29 04:10:30;;;;;;;8.20;6.33;;;;;;;;;;5114214;28;20446;-63
2024/02/29 04:12:56;;;;;;;4.10;4.00;;;;;;;;;;5104326;27;20534;-63
2024/02/29 04:15:23;;;;;;;7.27;6.77;;;;;;;;;;5114978;27;20485;-63
2024/02/29 04:17:49;;;;;;;5.77;5.10;;;;;;;;;;5107855;28;20459;-63
2024/02/29 04:20:17;;;;;;;6.70;6.40;;;;;;;;;;5113201;27;20475;-63
2024/02/29 04:22:43;;;;;;;10.37;8.87;;;;;;;;;;5123912;27;21060;-63
2024/02/29 04:25:10;;;;;;;6.73;6.33;;;;;;;;;;5130395;27;20467;-63
2024/02/29 04:27:37;;;;;;;7.43;7.03;;;;;;;;;;5115406;27;20871;-62
2024/02/29 04:30:05;;;;;;;9.17;8.33;;;;;;;;;;5107441;28;20978;-62
2024/02/29 04:32:32;;;;;;;5.93;5.63;;;;;;;;;;5125404;27;20454;-63
2024/02/29 04:34:58;;;;;;;5.60;5.30;;;;;;;;;;5122010;27;20461;-63
2024/02/29 04:37:26;;;;;;;4.73;4.57;;;;;;;;;;5115763;27;20441;-63
2024/02/29 04:39:52;;;;;;;6.53;6.00;;;;;;;;;;5113387;27;20521;-63
2024/02/29 04:42:19;;;;;;;8.30;7.70;;;;;;;;;;5118550;28;20492;-63
2024/02/29 04:44:45;;;;;;;8.40;7.67;;;;;;;;;;5116409;27;21015;-62
2024/02/29 04:47:11;;;;;;;7.40;6.70;;;;;;;;;;5119379;27;20895;-63
2024/02/29 04:49:38;;;;;;;6.53;6.23;;;;;;;;;;5109661;27;20467;-63
2024/02/29 04:52:04;;;;;;;9.00;7.40;;;;;;;;;;5110140;27;20505;-63
2024/02/29 04:54:32;;;;;;;5.50;5.23;;;;;;;;;;5110186;28;20482;-63
2024/02/29 04:56:58;;;;;;;6.23;5.93;;;;;;;;;;5117748;27;20462;-63
2024/02/29 04:59:25;;;;;;;10.10;9.20;;;;;;;;;;5118299;27;20521;-63
2024/02/29 05:01:51;;;;;;;6.70;6.37;;;;;;;;;;5121445;27;20861;-63
2024/02/29 05:04:18;;;;;;;4.70;4.60;;;;;;;;;;5118008;27;20470;-63
2024/02/29 05:06:44;;;;;;;5.60;5.37;;;;;;;;;;5109580;28;20953;-63
2024/02/29 05:09:11;;;;;;;7.87;6.63;;;;;;;;;;5111393;27;20468;-63
2024/02/29 05:11:39;;;;;;;6.07;5.87;;;;;;;;;;5110895;28;20447;-63
2024/02/29 05:14:06;;;;;;;8.00;7.40;;;;;;;;;;5117156;27;20981;-63
2024/02/29 05:16:32;;;;;;;7.27;6.77;;;;;;;;;;5114087;27;20446;-63
2024/02/29 05:18:59;;;;;;;5.20;5.00;;;;;;;;;;5124295;27;20539;-63
2024/02/29 05:21:25;;;;;;;5.23;5.03;;;;;;;;;;5120494;27;21163;-63
2024/02/29 05:23:52;;;;;;;5.90;5.60;;;;;;;;;;5124199;27;20542;-63
2024/02/29 05:26:18;;;;;;;10.13;9.13;;;;;;;;;;5125466;27;20484;-63
2024/02/29 05:28:47;;;;;;;8.50;7.80;;;;;;;;;;5124023;27;20541;-63
2024/02/29 05:31:13;;;;;;;5.03;4.83;;;;;;;;;;5114318;28;20490;-62
2024/02/29 05:33:41;;;;;;;5.87;5.57;;;;;;;;;;5122402;27;20437;-63
2024/02/29 05:36:07;;;;;;;5.53;5.33;;;;;;;;;;5102087;28;20483;-63
2024/02/29 05:38:34;;;;;;;10.00;6.20;;;;;;;;;;5104583;28;20485;-63
2024/02/29 05:41:02;;;;;;;7.33;6.80;;;;;;;;;;5122588;27;20888;-63
2024/02/29 05:43:28;;;;;;;6.87;6.53;;;;;;;;;;5123091;27;20469;-62
2024/02/29 05:45:56;;;;;;;7.40;6.83;;;;;;;;;;5121659;27;20493;-63
2024/02/29 05:48:22;;;;;;;5.53;5.23;;;;;;;;;;5126080;27;20574;-63
2024/02/29 05:50:50;;;;;;;5.70;5.50;;;;;;;;;;5130849;27;20462;-63
2024/02/29 05:53:16;;;;;;;8.53;7.57;;;;;;;;;;5108696;28;20816;-62
2024/02/29 05:55:43;;;;;;;38.67;7.20;;;;;;;;;;5112708;27;20472;-63
2024/02/29 05:58:09;;;;;;;5.80;5.57;;;;;;;;;;5127179;27;20449;-63
2024/02/29 06:00:36;;;;;;;11.13;9.53;;;;;;;;;;5111844;27;20465;-63
2024/02/29 06:03:03;;;;;;;6.43;6.03;;;;;;;;;;5129455;27;20489;-63
2024/02/29 06:05:31;;;;;;;5.53;5.33;;;;;;;;;;5116728;28;20480;-65
2024/02/29 06:07:57;;;;;;;8.30;7.60;;;;;;;;;;5121023;28;20517;-65
2024/02/29 06:10:23;;;;;;;8.57;7.90;;;;;;;;;;5125924;28;20447;-63
2024/02/29 06:12:50;;;;;;;8.17;7.57;;;;;;;;;;5120669;28;20464;-64
2024/02/29 06:15:16;;;;;;;6.60;5.97;;;;;;;;;;5124749;28;20442;-63
2024/02/29 06:17:43;;;;;;;7.20;6.70;;;;;;;;;;5124901;28;20450;-63
2024/02/29 06:20:12;;;;;;;10.47;9.60;;;;;;;;;;5112456;28;20576;-63
2024/02/29 06:22:39;;;;;;;8.83;7.33;;;;;;;;;;5121826;28;20514;-63
2024/02/29 06:25:08;;;;;;;5.53;5.33;;;;;;;;;;5118529;28;21002;-64
2024/02/29 06:27:35;;;;;;;10.40;8.90;;;;;;;;;;5119842;28;20460;-63
2024/02/29 06:30:02;;;;;;;5.60;5.40;;;;;;;;;;5132692;28;20503;-63
2024/02/29 06:32:28;;;;;;;6.40;6.10;;;;;;;;;;5108435;28;20505;-63
2024/02/29 06:34:55;;;;;;;10.87;7.70;;;;;;;;;;5120830;28;20435;-64
2024/02/29 06:37:22;;;;;;;5.70;5.50;;;;;;;;;;5123432;28;20460;-63
2024/02/29 06:39:49;;;;;;;6.83;6.50;;;;;;;;;;5111838;28;20520;-64
2024/02/29 06:42:15;;;;;;;5.37;5.17;;;;;;;;;;5129775;28;20912;-64
2024/02/29 06:44:42;;;;;;;7.27;6.80;;;;;;;;;;5117558;28;21024;-64
2024/02/29 06:47:08;;;;;;;5.50;5.20;;;;;;;;;;5117127;28;20518;-64
2024/02/29 06:49:35;;;;;;;4.67;4.50;;;;;;;;;;5108671;28;20446;-63
2024/02/29 06:52:01;;;;;;;7.77;7.17;;;;;;;;;;5113778;28;20482;-64
2024/02/29 06:54:29;;;;;;;5.80;5.50;;;;;;;;;;5117707;28;20453;-63
2024/02/29 06:56:55;;;;;;;9.60;8.70;;;;;;;;;;5124422;28;20480;-64
2024/02/29 06:59:22;;;;;;;5.27;5.07;;;;;;;;;;5115440;28;20529;-63
2024/02/29 07:01:48;;;;;;;21.97;6.53;;;;;;;;;;5113250;28;20450;-64
2024/02/29 07:04:14;;;;;;;4.60;4.33;;;;;;;;;;5130087;28;20488;-63
2024/02/29 07:06:41;;;;;;;6.40;6.10;;;;;;;;;;5131912;28;21283;-64
2024/02/29 07:09:08;;;;;;;6.03;5.73;;;;;;;;;;5117412;28;20497;-64
2024/02/29 07:11:35;;;;;;;7.53;7.13;;;;;;;;;;5127654;27;20967;-64
2024/02/29 07:14:02;;;;;;;7.77;7.37;;;;;;;;;;5122382;27;20487;-64
2024/02/29 07:16:29;;;;;;;8.80;8.10;;;;;;;;;;5117766;28;20996;-64
2024/02/29 07:18:55;;;;;;;5.93;5.60;;;;;;;;;;5128146;27;20499;-64
2024/02/29 07:21:22;;;;;;;8.43;7.90;;;;;;;;;;5122772;27;20446;-76
2024/02/29 07:23:48;;;;;;;12.50;9.13;;;;;;;;;;5106585;27;20576;-75
2024/02/29 07:26:15;;;;;;;8.17;7.73;;;;;;;;;;5140696;27;20930;-76
2024/02/29 07:28:42;;;;;;;6.73;6.47;;;;;;;;;;5130191;27;20446;-75
2024/02/29 07:31:09;;;;;;;9.27;8.63;;;;;;;;;;5121682;27;20878;-76
2024/02/29 07:33:37;;;;;;;7.23;6.80;;;;;;;;;;5122748;27;20526;-74
2024/02/29 07:36:03;;;;;;;6.77;6.37;;;;;;;;;;5108071;27;20453;-74
2024/02/29 07:38:30;;;;;;;9.10;8.30;;;;;;;;;;5125123;27;20489;-76
2024/02/29 07:40:56;;;;;;;8.50;7.90;;;;;;;;;;5119230;27;20471;-74
2024/02/29 07:43:23;;;;;;;11.97;11.27;;;;;;;;;;5117468;27;20481;-81
2024/02/29 07:45:50;;;;;;;8.83;8.20;;;;;;;;;;5108976;27;20443;-83
2024/02/29 07:48:17;;;;;;;8.00;7.60;;;;;;;;;;5121208;27;21026;-83
2024/02/29 07:50:43;;;;;;;7.57;7.20;;;;;;;;;;5113320;28;21017;-78
2024/02/29 07:53:10;;;;;;;7.70;7.20;;;;;;;;;;5123315;27;20502;-81
2024/02/29 07:55:37;;;;;;;9.53;8.63;;;;;;;;;;5134704;27;20485;-83
2024/02/29 07:58:05;;;;;;;9.53;9.03;;;;;;;;;;5132273;27;20434;-87
2024/02/29 08:00:31;;;;;;;8.47;7.97;;;;;;;;;;5123224;27;20462;-79
2024/02/29 08:02:59;;;;;;;7.33;7.03;;;;;;;;;;5118499;27;20454;-82
2024/02/29 08:05:25;;;;;;;7.03;6.73;;;;;;;;;;5129226;27;20466;-85
2024/02/29 08:07:52;;;;;;;11.93;10.80;;;;;;;;;;5123394;27;20505;-80
2024/02/29 08:10:18;;;;;;;6.97;6.70;;;;;;;;;;5133515;27;20470;-84
2024/02/29 08:12:45;;;;;;;10.33;9.63;;;;;;;;;;5135788;27;20481;-85
2024/02/29 08:15:11;;;;;;;8.43;7.83;;;;;;;;;;5129873;27;20461;-81
2024/02/29 08:17:38;;;;;;;7.93;7.53;;;;;;;;;;5130377;27;20478;-78
2024/02/29 08:20:07;;;;;;;11.30;10.57;;;;;;;;;;5123048;27;20430;-82
2024/02/29 08:22:34;;;;;;;7.80;7.13;;;;;;;;;;5129446;27;20453;-83
2024/02/29 08:25:01;;;;;;;8.97;8.43;;;;;;;;;;5125855;27;20550;-80
2024/02/29 08:27:27;;;;;;;9.83;9.13;;;;;;;;;;5134014;27;20613;-81
2024/02/29 08:29:53;;;;;;;8.33;7.90;;;;;;;;;;5135922;27;20438;-83
2024/02/29 08:32:20;;;;;;;7.53;7.13;;;;;;;;;;5128062;27;20438;-79
2024/02/29 08:34:46;;;;;;;9.63;9.03;;;;;;;;;;5128382;27;20480;-76
2024/02/29 08:37:14;;;;;;;9.07;8.47;;;;;;;;;;5114773;27;20454;-77
2024/02/29 08:39:41;;;;;;;6.80;6.40;;;;;;;;;;5132135;27;20521;-82
2024/02/29 08:42:07;;;;;;;7.17;6.87;;;;;;;;;;5131660;27;20480;-77
2024/02/29 08:44:34;;;;;;;10.03;9.20;;;;;;;;;;5120047;28;20910;-72
2024/02/29 08:47:03;;;;;;;8.73;8.33;;;;;;;;;;5124952;27;20421;-86
2024/02/29 08:49:30;;;;;;;9.17;8.57;;;;;;;;;;5125173;27;20514;-80
2024/02/29 08:51:57;;;;;;;8.07;7.67;;;;;;;;;;5127285;27;20864;-80
2024/02/29 08:54:25;;;;;;;8.03;7.53;;;;;;;;;;5132138;27;20523;-82
2024/02/29 08:56:52;;;;;;;6.53;6.33;;;;;;;;;;5130806;27;20473;-75
2024/02/29 08:59:18;;;;;;;7.07;6.70;;;;;;;;;;5129638;27;20442;-76
2024/02/29 09:01:44;;;;;;;8.10;7.40;;;;;;;;;;5134653;27;20465;-77
2024/02/29 09:04:11;;;;;;;10.57;9.77;;;;;;;;;;5130457;27;20515;-81
2024/02/29 09:06:37;;;;;;;7.83;7.50;;;;;;;;;;5130955;27;20495;-84
2024/02/29 09:09:04;;;;;;;8.33;7.80;;;;;;;;;;5113738;28;20488;-78
2024/02/29 09:11:31;;;;;;;7.30;7.00;;;;;;;;;;5127426;27;20445;-81
2024/02/29 09:13:58;;;;;;;6.20;6.00;;;;;;;;;;5122034;28;20485;-82
2024/02/29 09:16:24;;;;;;;6.50;6.30;;;;;;;;;;5126749;27;20438;-79
2024/02/29 09:18:51;;;;;;;7.30;6.80;;;;;;;;;;5122771;27;20489;-79
2024/02/29 09:21:17;;;;;;;9.57;8.87;;;;;;;;;;5116251;28;20470;-81
2024/02/29 09:23:44;;;;;;;6.57;6.27;;;;;;;;;;5121588;27;20531;-82
2024/02/29 09:26:12;;;;;;;6.83;6.53;;;;;;;;;;5124407;27;20438;-82
2024/02/29 09:28:40;;;;;;;8.63;8.23;;;;;;;;;;5129094;27;20454;-79
2024/02/29 09:31:07;;;;;;;5.97;5.77;;;;;;;;;;5126125;27;20466;-81
2024/02/29 09:33:33;;;;;;;7.17;6.67;;;;;;;;;;5131150;27;20465;-81
2024/02/29 09:36:00;;;;;;;6.90;6.60;;;;;;;;;;5126035;27;20470;-79
2024/02/29 09:38:27;;;;;;;6.80;6.50;;;;;;;;;;5138054;27;20453;-84
2024/02/29 09:40:53;;;;;;;7.30;6.57;;;;;;;;;;5131466;27;20856;-81
2024/02/29 09:43:20;;;;;;;6.20;5.90;;;;;;;;;;5121304;27;21140;-80
2024/02/29 09:45:49;;;;;;;6.83;6.53;;;;;;;;;;5119917;27;20515;-78
2024/02/29 09:48:16;;;;;;;6.40;6.20;;;;;;;;;;5118982;27;20533;-78
2024/02/29 09:50:43;;;;;;;5.80;5.60;;;;;;;;;;5112155;28;20443;-77
2024/02/29 09:53:10;;;;;;;7.53;7.23;;;;;;;;;;5124656;27;20451;-78
2024/02/29 09:55:37;;;;;;;6.63;6.33;;;;;;;;;;5116749;27;20993;-80
2024/02/29 09:58:04;;;;;;;6.93;6.00;;;;;;;;;;5121245;27;20530;-78
2024/02/29 10:00:31;;;;;;;7.70;7.30;;;;;;;;;;5132063;27;20456;-80
2024/02/29 10:02:59;;;;;;;5.90;5.70;;;;;;;;;;5120748;28;20557;-77
2024/02/29 10:05:25;;;;;;;6.50;6.20;;;;;;;;;;5130416;27;21070;-79
2024/02/29 10:07:52;;;;;;;6.70;6.40;;;;;;;;;;5122796;27;20447;-79
2024/02/29 10:10:18;;;;;;;6.47;6.27;;;;;;;;;;5102058;28;20469;-88
2024/02/29 10:12:45;;;;;;;7.30;6.87;;;;;;;;;;5121415;28;20475;-87
2024/02/29 10:15:11;;;;;;;5.90;5.60;;;;;;;;;;5126178;28;20452;-78
2024/02/29 10:17:38;;;;;;;4.93;4.73;;;;;;;;;;5137175;28;20466;-79
2024/02/29 10:20:10;;;;;;;7.17;6.87;;;;;;;;;;5129189;28;20455;-81
2024/02/29 10:22:37;;;;;;;7.33;6.93;;;;;;;;;;5121493;28;20472;-83
2024/02/29 10:25:04;;;;;;;5.90;5.70;;;;;;;;;;5136618;28;20535;-85
2024/02/29 10:27:30;;;;;;;6.73;6.43;;;;;;;;;;5124408;28;20500;-86
2024/02/29 10:29:57;;;;;;;5.03;4.83;;;;;;;;;;5111518;28;20446;-84
2024/02/29 10:32:24;;;;;;;5.40;5.17;;;;;;;;;;5111288;28;20435;-77
2024/02/29 10:34:50;;;;;;;9.00;6.47;;;;;;;;;;5128294;28;20470;-77
2024/02/29 10:37:18;;;;;;;4.73;4.53;;;;;;;;;;5124077;28;20939;-80
2024/02/29 10:39:45;;;;;;;6.40;6.00;;;;;;;;;;5127075;28;20482;-78
2024/02/29 10:42:12;;;;;;;6.37;5.87;;;;;;;;;;5133683;28;20446;-79
2024/02/29 10:44:40;;;;;;;5.20;4.80;;;;;;;;;;5127992;28;20483;-80
2024/02/29 10:47:09;;;;;;;5.50;5.30;;;;;;;;;;5130128;27;20529;-83
2024/02/29 10:49:37;;;;;;;4.90;4.70;;;;;;;;;;5128823;27;20477;-86
2024/02/29 10:52:09;;;;;;;6.70;5.90;;;;;;;;;;5135151;27;20449;-81
2024/02/29 10:54:39;;;;;;;5.93;5.63;;;;;;;;;;5126186;27;20545;-83
2024/02/29 10:57:08;;;;;;;5.60;5.30;;;;;;;;;;5130910;27;20458;-81
2024/02/29 10:59:37;;;;;;;4.93;4.73;;;;;;;;;;5134360;27;20462;-83
2024/02/29 11:02:04;;;;;;;5.47;5.17;;;;;;;;;;5129024;27;20545;-76
2024/02/29 11:04:30;;;;;;;4.40;4.10;;;;;;;;;;5126008;27;20492;-78
2024/02/29 11:06:57;;;;;;;6.50;6.00;;;;;;;;;;5140616;27;20441;-77
2024/02/29 11:09:25;;;;;;;7.33;6.93;;;;;;;;;;5135894;27;20831;-77
2024/02/29 11:12:08;;;;;;;7.80;7.30;;;;;;;;;;5129891;27;20442;-77
2024/02/29 11:14:36;;;;;;;7.03;6.63;;;;;;;;;;5125601;27;20466;-76
2024/02/29 11:17:03;;;;;;;7.83;7.33;;;;;;;;;;5125964;28;20446;-76
2024/02/29 11:19:29;;;;;;;8.10;7.73;;;;;;;;;;5125539;28;20458;-78
2024/02/29 11:21:56;;;;;;;7.30;6.90;;;;;;;;;;5130160;27;20470;-78
2024/02/29 11:24:23;;;;;;;6.43;6.13;;;;;;;;;;5140566;27;20481;-78
2024/02/29 11:26:55;;;;;;;9.00;8.33;;;;;;;;;;5125770;27;20872;-78
2024/02/29 11:29:23;;;;;;;6.87;6.37;;;;;;;;;;5135262;27;20434;-77
2024/02/29 11:31:50;;;;;;;5.40;5.10;;;;;;;;;;5115260;27;20474;-79
2024/02/29 11:34:17;;;;;;;7.20;6.57;;;;;;;;;;5117081;28;20478;-78
2024/02/29 11:36:44;;;;;;;10.63;9.77;;;;;;;;;;5128733;27;20477;-78
2024/02/29 11:39:11;;;;;;;8.80;8.00;;;;;;;;;;5118698;27;20508;-78
2024/02/29 11:41:38;;;;;;;7.23;6.93;;;;;;;;;;5123156;27;20455;-78
2024/02/29 11:44:05;;;;;;;8.67;8.10;;;;;;;;;;5125904;28;20485;-78
2024/02/29 11:46:33;;;;;;;10.03;9.40;;;;;;;;;;5129835;27;20553;-82
2024/02/29 11:48:59;;;;;;;6.97;6.67;;;;;;;;;;5117996;27;20514;-86
2024/02/29 11:51:28;;;;;;;8.00;7.47;;;;;;;;;;5126214;27;20818;-80
2024/02/29 11:53:54;;;;;;;8.47;7.77;;;;;;;;;;5119098;27;20451;-77
2024/02/29 11:56:21;;;;;;;9.20;8.43;;;;;;;;;;5123570;27;20437;-77
2024/02/29 11:58:48;;;;;;;8.97;8.20;;;;;;;;;;5115480;28;20455;-76
2024/02/29 12:01:15;;;;;;;8.10;7.27;;;;;;;;;;5119603;28;20442;-77
2024/02/29 12:03:44;;;;;;;5.37;5.07;;;;;;;;;;5127622;27;20447;-76
2024/02/29 12:06:11;;;;;;;6.43;5.83;;;;;;;;;;5125252;27;20499;-81
2024/02/29 12:08:39;;;;;;;7.03;6.63;;;;;;;;;;5126793;27;20469;-80
2024/02/29 12:11:07;;;;;;;7.10;6.80;;;;;;;;;;5118020;27;20491;-78
2024/02/29 12:13:33;;;;;;;8.70;8.10;;;;;;;;;;5120783;27;20454;-82
2024/02/29 12:16:00;;;;;;;8.27;7.80;;;;;;;;;;5120949;27;20439;-83
2024/02/29 12:18:27;;;;;;;8.73;8.17;;;;;;;;;;5129227;27;20510;-84
2024/02/29 12:20:56;;;;;;;8.77;8.03;;;;;;;;;;5121382;28;20446;-81
2024/02/29 12:23:23;;;;;;;11.27;10.40;;;;;;;;;;5127223;27;20458;-81
2024/02/29 12:25:50;;;;;;;11.33;10.43;;;;;;;;;;5134775;27;20488;-79
2024/02/29 12:28:17;;;;;;;10.03;9.23;;;;;;;;;;5137156;27;20471;-81
2024/02/29 12:30:47;;;;;;;13.33;10.23;;;;;;;;;;5118890;27;20455;-81
2024/02/29 12:33:14;;;;;;;6.90;6.60;;;;;;;;;;5127605;27;20491;-84
2024/02/29 12:35:43;;;;;;;7.10;6.60;;;;;;;;;;5138055;27;20503;-84
2024/02/29 12:38:14;;;;;;;9.33;8.50;;;;;;;;;;5131364;27;20450;-82
2024/02/29 12:40:40;;;;;;;7.50;6.97;;;;;;;;;;5136134;27;20509;-83
2024/02/29 12:43:06;;;;;;;10.37;9.63;;;;;;;;;;5125614;27;20436;-80
2024/02/29 12:45:34;;;;;;;9.57;8.30;;;;;;;;;;5122722;27;20492;-79
2024/02/29 12:48:01;;;;;;;9.13;8.30;;;;;;;;;;5126995;27;20464;-78
2024/02/29 12:50:27;;;;;;;8.67;7.80;;;;;;;;;;5113970;27;20440;-80
2024/02/29 12:52:56;;;;;;;6.30;5.90;;;;;;;;;;5113930;27;20450;-77
2024/02/29 12:55:24;;;;;;;10.83;9.80;;;;;;;;;;5121989;27;20454;-81
2024/02/29 12:57:51;;;;;;;12.20;10.97;;;;;;;;;;5121385;27;20503;-76
2024/02/29 13:00:21;;;;;;;5.30;5.00;;;;;;;;;;5126831;27;20445;-83
2024/02/29 13:02:48;;;;;;;7.20;6.67;;;;;;;;;;5130172;27;21034;-91
2024/02/29 13:05:16;;;;;;;4.90;4.70;;;;;;;;;;5124342;27;20840;-81
2024/02/29 13:07:42;;;;;;;7.60;7.20;;;;;;;;;;5112035;27;20469;-75
2024/02/29 13:10:09;;;;;;;8.90;8.37;;;;;;;;;;5136854;27;20540;-79
2024/02/29 13:12:37;;;;;;;7.50;7.10;;;;;;;;;;5128014;27;20458;-75
2024/02/29 13:15:05;;;;;;;7.50;7.10;;;;;;;;;;5119417;27;20457;-77
2024/02/29 13:17:32;;;;;;;9.17;8.30;;;;;;;;;;5123277;27;20450;-77
2024/02/29 13:19:58;;;;;;;6.13;5.93;;;;;;;;;;5113415;27;20445;-78
2024/02/29 13:22:24;;;;;;;9.43;8.43;;;;;;;;;;5120764;27;20485;-79
2024/02/29 13:24:52;;;;;;;12.03;11.30;;;;;;;;;;5112210;27;20462;-77
2024/02/29 13:27:18;;;;;;;6.53;6.23;;;;;;;;;;5114454;28;20500;-83
2024/02/29 13:29:46;;;;;;;7.17;6.90;;;;;;;;;;5117338;27;20434;-83
2024/02/29 13:32:12;;;;;;;8.90;8.40;;;;;;;;;;5122009;27;20476;-81
2024/02/29 13:34:39;;;;;;;10.63;10.03;;;;;;;;;;5115087;27;20445;-83
2024/02/29 13:37:06;;;;;;;13.23;10.60;;;;;;;;;;5132911;27;20430;-81
2024/02/29 13:39:32;;;;;;;9.00;8.43;;;;;;;;;;5128390;27;20494;-87
2024/02/29 13:42:04;;;;;;;9.10;8.57;;;;;;;;;;5117238;27;20438;-85
2024/02/29 13:44:31;;;;;;;11.00;10.20;;;;;;;;;;5115988;28;20450;-75
2024/02/29 13:46:59;;;;;;;6.70;6.30;;;;;;;;;;5124046;27;20548;-75
2024/02/29 13:49:26;;;;;;;7.50;7.00;;;;;;;;;;5128737;27;20546;-79
2024/02/29 13:51:53;;;;;;;7.23;6.73;;;;;;;;;;5114202;28;20479;-79
2024/02/29 13:54:20;;;;;;;8.17;7.50;;;;;;;;;;5119736;28;21002;-79
2024/02/29 13:56:46;;;;;;;4.90;4.60;;;;;;;;;;5121585;28;20438;-80
2024/02/29 13:59:13;;;;;;;6.80;6.40;;;;;;;;;;5117893;28;20498;-81
2024/02/29 14:01:40;;;;;;;6.63;6.13;;;;;;;;;;5132314;27;20478;-81
2024/02/29 14:04:08;;;;;;;5.37;5.17;;;;;;;;;;5123815;27;20472;-83
2024/02/29 14:06:34;;;;;;;6.83;6.23;;;;;;;;;;5114404;28;20523;-83
2024/02/29 14:09:01;;;;;;;9.13;8.23;;;;;;;;;;5127279;27;20453;-85
2024/02/29 14:11:28;;;;;;;5.60;5.40;;;;;;;;;;5125940;27;20468;-83
2024/02/29 14:13:54;;;;;;;6.10;5.60;;;;;;;;;;5136259;27;20457;-84
2024/02/29 14:16:21;;;;;;;5.53;5.20;;;;;;;;;;5113107;28;20438;-82
2024/02/29 14:18:47;;;;;;;6.80;6.40;;;;;;;;;;5116181;28;20532;-83
2024/02/29 14:21:16;;;;;;;7.53;6.97;;;;;;;;;;5121014;28;20438;-84
2024/02/29 14:23:42;;;;;;;13.67;8.50;;;;;;;;;;5125455;27;20466;-84
2024/02/29 14:26:09;;;;;;;6.83;6.53;;;;;;;;;;5117598;28;20478;-87
2024/02/29 14:28:36;;;;;;;6.63;6.37;;;;;;;;;;5128463;27;20459;-84
2024/02/29 14:31:03;;;;;;;7.70;7.10;;;;;;;;;;5129697;27;20478;-71
2024/02/29 14:33:29;;;;;;;7.97;7.47;;;;;;;;;;5132272;27;20452;-78
2024/02/29 14:35:56;;;;;;;6.47;6.27;;;;;;;;;;5131091;27;20438;-79
2024/02/29 14:38:24;;;;;;;9.30;8.50;;;;;;;;;;5124684;27;20442;-81